sensor_id;sensor_type;location;lat;lon;timestamp;temperature;humidity
71096;DHT22;58753;49.440;11.126;2023-04-03T00:08:40;3.22;70.57
71096;DHT22;58753;49.440;11.126;2023-04-03T00:11:06;3.19;70.54
71096;DHT22;58753;49.440;11.126;2023-04-03T00:13:32;3.18;70.71
71096;DHT22;58753;49.440;11.126;2023-04-03T00:15:58;3.19;70.71
71096;DHT22;58753;49.440;11.126;2023-04-03T00:18:23;3.22;70.75
71096;DHT22;58753;49.440;11.126;2023-04-03T00:20:49;3.21;70.80
71096;DHT22;58753;49.440;11.126;2023-04-03T00:23:14;3.19;70.99
71096;DHT22;58753;49.440;11.126;2023-04-03T00:25:40;3.19;71.04
71096;DHT22;58753;49.440;11.126;2023-04-03T00:28:06;3.19;71.18
71096;DHT22;58753;49.440;11.126;2023-04-03T00:30:31;3.18;71.27
71096;DHT22;58753;49.440;11.126;2023-04-03T00:32:57;3.15;71.49
71096;DHT22;58753;49.440;11.126;2023-04-03T00:35:23;3.15;71.60
71096;DHT22;58753;49.440;11.126;2023-04-03T00:37:53;3.14;71.71
71096;DHT22;58753;49.440;11.126;2023-04-03T00:40:20;3.09;71.79
71096;DHT22;58753;49.440;11.126;2023-04-03T00:42:47;3.09;71.82
71096;DHT22;58753;49.440;11.126;2023-04-03T00:45:24;3.09;72.00
71096;DHT22;58753;49.440;11.126;2023-04-03T00:47:50;3.05;71.98
71096;DHT22;58753;49.440;11.126;2023-04-03T00:50:16;3.04;72.08
71096;DHT22;58753;49.440;11.126;2023-04-03T00:52:42;3.04;72.28
71096;DHT22;58753;49.440;11.126;2023-04-03T00:55:08;3.04;72.38
71096;DHT22;58753;49.440;11.126;2023-04-03T00:57:34;3.00;72.29
71096;DHT22;58753;49.440;11.126;2023-04-03T01:00:04;2.97;72.33
71096;DHT22;58753;49.440;11.126;2023-04-03T01:02:31;3.00;72.37
71096;DHT22;58753;49.440;11.126;2023-04-03T01:04:56;2.97;72.46
71096;DHT22;58753;49.440;11.126;2023-04-03T01:07:26;2.97;72.36
71096;DHT22;58753;49.440;11.126;2023-04-03T01:09:56;2.95;72.39
71096;DHT22;58753;49.440;11.126;2023-04-03T01:12:28;2.93;72.31
71096;DHT22;58753;49.440;11.126;2023-04-03T01:15:08;2.93;72.40
71096;DHT22;58753;49.440;11.126;2023-04-03T01:25:26;2.90;72.22
71096;DHT22;58753;49.440;11.126;2023-04-03T01:27:51;2.87;72.10
71096;DHT22;58753;49.440;11.126;2023-04-03T01:30:19;2.83;71.97
71096;DHT22;58753;49.440;11.126;2023-04-03T01:32:45;2.84;72.09
71096;DHT22;58753;49.440;11.126;2023-04-03T01:35:11;2.83;72.17
71096;DHT22;58753;49.440;11.126;2023-04-03T01:37:36;2.85;72.26
71096;DHT22;58753;49.440;11.126;2023-04-03T01:40:02;2.83;72.32
71096;DHT22;58753;49.440;11.126;2023-04-03T01:42:28;2.81;72.34
71096;DHT22;58753;49.440;11.126;2023-04-03T01:44:54;2.77;72.24
71096;DHT22;58753;49.440;11.126;2023-04-03T01:47:20;2.74;72.28
71096;DHT22;58753;49.440;11.126;2023-04-03T01:49:45;2.72;72.40
71096;DHT22;58753;49.440;11.126;2023-04-03T01:52:10;2.72;72.46
71096;DHT22;58753;49.440;11.126;2023-04-03T01:54:36;2.68;72.55
71096;DHT22;58753;49.440;11.126;2023-04-03T01:57:01;2.66;72.57
71096;DHT22;58753;49.440;11.126;2023-04-03T01:59:27;2.61;72.58
71096;DHT22;58753;49.440;11.126;2023-04-03T02:01:53;2.57;72.61
71096;DHT22;58753;49.440;11.126;2023-04-03T02:04:18;2.58;72.65
71096;DHT22;58753;49.440;11.126;2023-04-03T02:06:44;2.52;72.62
71096;DHT22;58753;49.440;11.126;2023-04-03T02:09:09;2.49;72.71
71096;DHT22;58753;49.440;11.126;2023-04-03T02:11:34;2.44;72.58
71096;DHT22;58753;49.440;11.126;2023-04-03T02:14:00;2.40;72.60
71096;DHT22;58753;49.440;11.126;2023-04-03T02:16:25;2.37;72.77
71096;DHT22;58753;49.440;11.126;2023-04-03T02:18:51;2.39;73.00
71096;DHT22;58753;49.440;11.126;2023-04-03T02:21:16;2.34;73.12
71096;DHT22;58753;49.440;11.126;2023-04-03T02:23:41;2.32;73.10
71096;DHT22;58753;49.440;11.126;2023-04-03T02:26:10;2.26;73.25
71096;DHT22;58753;49.440;11.126;2023-04-03T02:28:37;2.25;73.39
71096;DHT22;58753;49.440;11.126;2023-04-03T02:31:03;2.22;73.46
71096;DHT22;58753;49.440;11.126;2023-04-03T02:33:31;2.18;73.65
71096;DHT22;58753;49.440;11.126;2023-04-03T02:35:57;2.15;73.76
71096;DHT22;58753;49.440;11.126;2023-04-03T02:38:23;2.15;73.90
71096;DHT22;58753;49.440;11.126;2023-04-03T02:40:49;2.11;73.98
71096;DHT22;58753;49.440;11.126;2023-04-03T02:43:14;2.09;74.13
71096;DHT22;58753;49.440;11.126;2023-04-03T02:45:39;2.03;74.38
71096;DHT22;58753;49.440;11.126;2023-04-03T02:48:05;2.02;74.45
71096;DHT22;58753;49.440;11.126;2023-04-03T02:50:30;1.95;74.39
71096;DHT22;58753;49.440;11.126;2023-04-03T02:52:56;1.94;74.57
71096;DHT22;58753;49.440;11.126;2023-04-03T02:55:21;1.88;74.74
71096;DHT22;58753;49.440;11.126;2023-04-03T02:57:47;1.88;74.88
71096;DHT22;58753;49.440;11.126;2023-04-03T03:00:12;1.86;74.97
71096;DHT22;58753;49.440;11.126;2023-04-03T03:02:38;1.82;75.02
71096;DHT22;58753;49.440;11.126;2023-04-03T03:05:03;1.79;75.10
71096;DHT22;58753;49.440;11.126;2023-04-03T03:07:29;1.77;75.23
71096;DHT22;58753;49.440;11.126;2023-04-03T03:09:54;1.75;75.36
71096;DHT22;58753;49.440;11.126;2023-04-03T03:12:20;1.75;75.42
71096;DHT22;58753;49.440;11.126;2023-04-03T03:14:47;1.74;75.52
71096;DHT22;58753;49.440;11.126;2023-04-03T03:17:13;1.71;75.59
71096;DHT22;58753;49.440;11.126;2023-04-03T03:19:38;1.69;75.81
71096;DHT22;58753;49.440;11.126;2023-04-03T03:22:03;1.68;75.84
71096;DHT22;58753;49.440;11.126;2023-04-03T03:24:29;1.65;75.97
71096;DHT22;58753;49.440;11.126;2023-04-03T03:26:54;1.64;76.08
71096;DHT22;58753;49.440;11.126;2023-04-03T03:29:20;1.61;76.21
71096;DHT22;58753;49.440;11.126;2023-04-03T03:31:45;1.61;76.44
71096;DHT22;58753;49.440;11.126;2023-04-03T03:34:11;1.62;76.67
71096;DHT22;58753;49.440;11.126;2023-04-03T03:36:37;1.61;76.73
71096;DHT22;58753;49.440;11.126;2023-04-03T03:39:02;1.61;76.84
71096;DHT22;58753;49.440;11.126;2023-04-03T03:41:28;1.57;77.04
71096;DHT22;58753;49.440;11.126;2023-04-03T03:43:53;1.55;77.13
71096;DHT22;58753;49.440;11.126;2023-04-03T03:46:18;1.57;77.28
71096;DHT22;58753;49.440;11.126;2023-04-03T03:48:44;1.55;77.47
71096;DHT22;58753;49.440;11.126;2023-04-03T03:51:10;1.58;77.64
71096;DHT22;58753;49.440;11.126;2023-04-03T03:53:35;1.60;77.77
71096;DHT22;58753;49.440;11.126;2023-04-03T03:56:01;1.64;77.87
71096;DHT22;58753;49.440;11.126;2023-04-03T03:58:26;1.65;77.99
71096;DHT22;58753;49.440;11.126;2023-04-03T04:00:52;1.68;77.99
71096;DHT22;58753;49.440;11.126;2023-04-03T04:03:17;1.69;78.09
71096;DHT22;58753;49.440;11.126;2023-04-03T04:05:43;1.71;78.12
71096;DHT22;58753;49.440;11.126;2023-04-03T04:08:08;1.69;78.24
71096;DHT22;58753;49.440;11.126;2023-04-03T04:10:35;1.69;78.30
71096;DHT22;58753;49.440;11.126;2023-04-03T04:13:00;1.71;78.35
71096;DHT22;58753;49.440;11.126;2023-04-03T04:15:26;1.69;78.49
71096;DHT22;58753;49.440;11.126;2023-04-03T04:17:52;1.74;78.73
71096;DHT22;58753;49.440;11.126;2023-04-03T04:20:18;1.72;78.71
71096;DHT22;58753;49.440;11.126;2023-04-03T04:22:43;1.75;78.80
71096;DHT22;58753;49.440;11.126;2023-04-03T04:25:09;1.75;78.78
71096;DHT22;58753;49.440;11.126;2023-04-03T04:27:35;1.72;78.87
71096;DHT22;58753;49.440;11.126;2023-04-03T04:30:00;1.69;78.98
71096;DHT22;58753;49.440;11.126;2023-04-03T04:32:26;1.71;78.98
71096;DHT22;58753;49.440;11.126;2023-04-03T04:34:51;1.69;79.11
71096;DHT22;58753;49.440;11.126;2023-04-03T04:37:17;1.67;79.06
71096;DHT22;58753;49.440;11.126;2023-04-03T04:39:42;1.64;79.28
71096;DHT22;58753;49.440;11.126;2023-04-03T04:42:07;1.61;79.18
71096;DHT22;58753;49.440;11.126;2023-04-03T04:44:40;1.54;79.28
71096;DHT22;58753;49.440;11.126;2023-04-03T04:47:06;1.50;79.56
71096;DHT22;58753;49.440;11.126;2023-04-03T04:49:31;1.48;79.71
71096;DHT22;58753;49.440;11.126;2023-04-03T04:51:56;1.41;79.83
71096;DHT22;58753;49.440;11.126;2023-04-03T04:54:22;1.40;79.94
71096;DHT22;58753;49.440;11.126;2023-04-03T04:56:47;1.41;80.14
71096;DHT22;58753;49.440;11.126;2023-04-03T04:59:13;1.43;80.21
71096;DHT22;58753;49.440;11.126;2023-04-03T05:01:38;1.40;80.27
71096;DHT22;58753;49.440;11.126;2023-04-03T05:04:04;1.43;80.40
71096;DHT22;58753;49.440;11.126;2023-04-03T05:06:29;1.44;80.53
71096;DHT22;58753;49.440;11.126;2023-04-03T05:08:57;1.47;80.52
71096;DHT22;58753;49.440;11.126;2023-04-03T05:11:23;1.50;80.68
71096;DHT22;58753;49.440;11.126;2023-04-03T05:13:49;1.51;80.70
71096;DHT22;58753;49.440;11.126;2023-04-03T05:16:14;1.58;80.80
71096;DHT22;58753;49.440;11.126;2023-04-03T05:18:40;1.60;80.82
71096;DHT22;58753;49.440;11.126;2023-04-03T05:21:05;1.64;80.84
71096;DHT22;58753;49.440;11.126;2023-04-03T05:23:31;1.67;80.77
71096;DHT22;58753;49.440;11.126;2023-04-03T05:25:56;1.67;80.91
71096;DHT22;58753;49.440;11.126;2023-04-03T05:28:21;1.72;80.97
71096;DHT22;58753;49.440;11.126;2023-04-03T05:30:53;1.75;81.06
71096;DHT22;58753;49.440;11.126;2023-04-03T05:33:19;1.79;81.03
71096;DHT22;58753;49.440;11.126;2023-04-03T05:35:45;1.82;80.89
71096;DHT22;58753;49.440;11.126;2023-04-03T05:38:10;1.86;80.97
71096;DHT22;58753;49.440;11.126;2023-04-03T05:40:36;1.94;81.08
71096;DHT22;58753;49.440;11.126;2023-04-03T05:43:01;1.95;80.89
71096;DHT22;58753;49.440;11.126;2023-04-03T05:45:27;1.95;80.79
71096;DHT22;58753;49.440;11.126;2023-04-03T05:47:52;2.01;80.80
71096;DHT22;58753;49.440;11.126;2023-04-03T05:50:18;2.09;80.90
71096;DHT22;58753;49.440;11.126;2023-04-03T05:52:45;2.12;80.64
71096;DHT22;58753;49.440;11.126;2023-04-03T05:55:12;2.13;80.50
71096;DHT22;58753;49.440;11.126;2023-04-03T05:57:37;2.22;80.49
71096;DHT22;58753;49.440;11.126;2023-04-03T06:00:04;2.23;80.29
71096;DHT22;58753;49.440;11.126;2023-04-03T06:02:31;2.28;80.27
71096;DHT22;58753;49.440;11.126;2023-04-03T06:04:56;2.32;80.19
71096;DHT22;58753;49.440;11.126;2023-04-03T06:07:23;2.33;80.19
71096;DHT22;58753;49.440;11.126;2023-04-03T06:09:50;2.39;80.11
71096;DHT22;58753;49.440;11.126;2023-04-03T06:12:16;2.44;79.94
71096;DHT22;58753;49.440;11.126;2023-04-03T06:14:42;2.44;79.78
71096;DHT22;58753;49.440;11.126;2023-04-03T06:17:07;2.50;79.91
71096;DHT22;58753;49.440;11.126;2023-04-03T06:19:34;2.54;79.72
71096;DHT22;58753;49.440;11.126;2023-04-03T06:21:59;2.58;79.59
71096;DHT22;58753;49.440;11.126;2023-04-03T06:24:25;2.64;79.37
71096;DHT22;58753;49.440;11.126;2023-04-03T06:26:51;2.66;79.49
71096;DHT22;58753;49.440;11.126;2023-04-03T06:29:18;2.74;79.47
71096;DHT22;58753;49.440;11.126;2023-04-03T06:31:43;2.84;79.53
71096;DHT22;58753;49.440;11.126;2023-04-03T06:34:09;2.90;79.21
71096;DHT22;58753;49.440;11.126;2023-04-03T06:36:36;2.85;78.71
71096;DHT22;58753;49.440;11.126;2023-04-03T06:39:01;2.91;78.70
71096;DHT22;58753;49.440;11.126;2023-04-03T06:41:28;2.95;78.59
71096;DHT22;58753;49.440;11.126;2023-04-03T06:43:53;3.00;78.67
71096;DHT22;58753;49.440;11.126;2023-04-03T06:46:22;3.08;78.51
71096;DHT22;58753;49.440;11.126;2023-04-03T06:48:48;3.15;78.40
71096;DHT22;58753;49.440;11.126;2023-04-03T06:51:24;3.27;78.46
71096;DHT22;58753;49.440;11.126;2023-04-03T06:53:50;3.35;78.12
71096;DHT22;58753;49.440;11.126;2023-04-03T06:56:17;3.39;77.79
71096;DHT22;58753;49.440;11.126;2023-04-03T06:58:43;3.49;77.73
71096;DHT22;58753;49.440;11.126;2023-04-03T07:01:10;3.56;77.57
71096;DHT22;58753;49.440;11.126;2023-04-03T07:03:36;3.59;77.07
71096;DHT22;58753;49.440;11.126;2023-04-03T07:06:03;3.75;77.21
71096;DHT22;58753;49.440;11.126;2023-04-03T07:08:29;3.80;76.60
71096;DHT22;58753;49.440;11.126;2023-04-03T07:10:54;3.76;76.22
71096;DHT22;58753;49.440;11.126;2023-04-03T07:13:20;3.90;76.34
71096;DHT22;58753;49.440;11.126;2023-04-03T07:15:45;3.97;75.74
71096;DHT22;58753;49.440;11.126;2023-04-03T07:18:11;4.02;75.38
71096;DHT22;58753;49.440;11.126;2023-04-03T07:20:36;4.04;75.20
71096;DHT22;58753;49.440;11.126;2023-04-03T07:23:02;4.14;75.08
71096;DHT22;58753;49.440;11.126;2023-04-03T07:25:28;4.23;74.56
71096;DHT22;58753;49.440;11.126;2023-04-03T07:27:53;4.29;74.47
71096;DHT22;58753;49.440;11.126;2023-04-03T07:30:20;4.25;73.55
71096;DHT22;58753;49.440;11.126;2023-04-03T07:32:45;4.24;73.40
71096;DHT22;58753;49.440;11.126;2023-04-03T07:35:11;4.30;73.09
71096;DHT22;58753;49.440;11.126;2023-04-03T07:37:37;4.40;72.75
71096;DHT22;58753;49.440;11.126;2023-04-03T07:40:02;4.48;72.34
71096;DHT22;58753;49.440;11.126;2023-04-03T07:42:29;4.54;72.13
71096;DHT22;58753;49.440;11.126;2023-04-03T07:44:54;4.64;71.50
71096;DHT22;58753;49.440;11.126;2023-04-03T07:47:20;4.71;71.35
71096;DHT22;58753;49.440;11.126;2023-04-03T07:49:46;4.71;71.01
71096;DHT22;58753;49.440;11.126;2023-04-03T07:52:12;4.85;70.83
71096;DHT22;58753;49.440;11.126;2023-04-03T07:54:39;4.85;70.15
71096;DHT22;58753;49.440;11.126;2023-04-03T07:57:05;4.88;69.61
71096;DHT22;58753;49.440;11.126;2023-04-03T07:59:31;4.88;69.38
71096;DHT22;58753;49.440;11.126;2023-04-03T08:01:56;4.91;69.06
71096;DHT22;58753;49.440;11.126;2023-04-03T08:04:22;4.99;69.16
71096;DHT22;58753;49.440;11.126;2023-04-03T08:06:47;5.11;69.01
71096;DHT22;58753;49.440;11.126;2023-04-03T08:09:14;5.18;68.48
71096;DHT22;58753;49.440;11.126;2023-04-03T08:11:40;5.30;68.46
71096;DHT22;58753;49.440;11.126;2023-04-03T08:14:05;5.39;68.36
71096;DHT22;58753;49.440;11.126;2023-04-03T08:16:31;5.50;67.87
71096;DHT22;58753;49.440;11.126;2023-04-03T08:18:56;5.51;67.15
71096;DHT22;58753;49.440;11.126;2023-04-03T08:21:22;5.49;66.65
71096;DHT22;58753;49.440;11.126;2023-04-03T08:23:49;5.51;66.37
71096;DHT22;58753;49.440;11.126;2023-04-03T08:26:18;5.51;66.18
71096;DHT22;58753;49.440;11.126;2023-04-03T08:28:43;5.51;65.22
71096;DHT22;58753;49.440;11.126;2023-04-03T08:31:18;5.44;65.21
71096;DHT22;58753;49.440;11.126;2023-04-03T08:33:44;5.44;64.93
71096;DHT22;58753;49.440;11.126;2023-04-03T08:38:46;5.47;64.62
71096;DHT22;58753;49.440;11.126;2023-04-03T08:46:31;5.69;63.00
71096;DHT22;58753;49.440;11.126;2023-04-03T08:48:59;5.70;63.17
71096;DHT22;58753;49.440;11.126;2023-04-03T08:51:26;5.73;62.63
71096;DHT22;58753;49.440;11.126;2023-04-03T08:54:01;5.81;62.16
71096;DHT22;58753;49.440;11.126;2023-04-03T08:56:30;5.90;61.66
71096;DHT22;58753;49.440;11.126;2023-04-03T08:58:58;5.81;61.02
71096;DHT22;58753;49.440;11.126;2023-04-03T09:01:39;5.83;60.87
71096;DHT22;58753;49.440;11.126;2023-04-03T09:04:14;5.84;59.99
71096;DHT22;58753;49.440;11.126;2023-04-03T09:06:42;5.86;59.62
71096;DHT22;58753;49.440;11.126;2023-04-03T09:09:24;5.84;59.51
71096;DHT22;58753;49.440;11.126;2023-04-03T09:14:37;6.02;58.65
71096;DHT22;58753;49.440;11.126;2023-04-03T09:22:55;5.91;57.29
71096;DHT22;58753;49.440;11.126;2023-04-03T09:25:31;5.86;56.99
71096;DHT22;58753;49.440;11.126;2023-04-03T09:27:59;5.86;57.41
71096;DHT22;58753;49.440;11.126;2023-04-03T09:30:26;5.93;57.63
71096;DHT22;58753;49.440;11.126;2023-04-03T09:32:54;6.11;57.66
71096;DHT22;58753;49.440;11.126;2023-04-03T09:35:26;6.22;57.53
71096;DHT22;58753;49.440;11.126;2023-04-03T09:40:47;6.22;56.48
71096;DHT22;58753;49.440;11.126;2023-04-03T09:45:46;6.22;56.38
71096;DHT22;58753;49.440;11.126;2023-04-03T09:55:52;6.26;53.36
71096;DHT22;58753;49.440;11.126;2023-04-03T09:58:33;6.24;54.32
71096;DHT22;58753;49.440;11.126;2023-04-03T10:01:02;6.22;54.06
71096;DHT22;58753;49.440;11.126;2023-04-03T10:05:53;6.44;54.70
71096;DHT22;58753;49.440;11.126;2023-04-03T10:08:24;6.75;53.74
71096;DHT22;58753;49.440;11.126;2023-04-03T10:11:09;6.85;52.95
71096;DHT22;58753;49.440;11.126;2023-04-03T10:13:35;6.75;52.48
71096;DHT22;58753;49.440;11.126;2023-04-03T10:16:12;6.75;52.38
71096;DHT22;58753;49.440;11.126;2023-04-03T10:18:48;6.83;52.14
71096;DHT22;58753;49.440;11.126;2023-04-03T10:23:48;7.50;52.96
71096;DHT22;58753;49.440;11.126;2023-04-03T10:26:34;7.81;51.98
71096;DHT22;58753;49.440;11.126;2023-04-03T10:31:59;7.60;49.15
71096;DHT22;58753;49.440;11.126;2023-04-03T10:34:30;7.41;48.82
71096;DHT22;58753;49.440;11.126;2023-04-03T10:37:24;7.37;49.14
71096;DHT22;58753;49.440;11.126;2023-04-03T10:43:15;7.23;48.26
71096;DHT22;58753;49.440;11.126;2023-04-03T10:45:53;7.30;48.29
71096;DHT22;58753;49.440;11.126;2023-04-03T10:48:25;7.41;48.13
71096;DHT22;58753;49.440;11.126;2023-04-03T10:56:29;7.99;48.11
71096;DHT22;58753;49.440;11.126;2023-04-03T10:59:18;8.54;48.19
71096;DHT22;58753;49.440;11.126;2023-04-03T11:01:52;9.03;46.87
71096;DHT22;58753;49.440;11.126;2023-04-03T11:04:20;8.87;45.61
71096;DHT22;58753;49.440;11.126;2023-04-03T11:07:07;8.66;45.37
71096;DHT22;58753;49.440;11.126;2023-04-03T11:09:37;8.47;44.90
71096;DHT22;58753;49.440;11.126;2023-04-03T11:14:36;9.42;44.47
71096;DHT22;58753;49.440;11.126;2023-04-03T11:22:37;14.75;41.47
71096;DHT22;58753;49.440;11.126;2023-04-03T11:27:59;10.96;36.40
71096;DHT22;58753;49.440;11.126;2023-04-03T11:35:44;9.24;36.42
71096;DHT22;58753;49.440;11.126;2023-04-03T11:38:19;8.81;37.24
71096;DHT22;58753;49.440;11.126;2023-04-03T11:40:47;8.36;37.23
71096;DHT22;58753;49.440;11.126;2023-04-03T11:43:30;8.97;39.56
71096;DHT22;58753;49.440;11.126;2023-04-03T11:51:42;16.36;36.21
71096;DHT22;58753;49.440;11.126;2023-04-03T11:53:43;17.11;32.71
71096;DHT22;58753;49.440;11.126;2023-04-03T12:01:46;14.31;27.19
71096;DHT22;58753;49.440;11.126;2023-04-03T12:04:13;12.42;27.70
71096;DHT22;58753;49.440;11.126;2023-04-03T12:12:31;14.96;32.17
71096;DHT22;58753;49.440;11.126;2023-04-03T12:17:45;17.28;28.82
71096;DHT22;58753;49.440;11.126;2023-04-03T12:20:57;17.51;27.43
71096;DHT22;58753;49.440;11.126;2023-04-03T12:23:33;18.05;25.44
71096;DHT22;58753;49.440;11.126;2023-04-03T12:26:20;18.81;25.68
71096;DHT22;58753;49.440;11.126;2023-04-03T12:28:48;18.53;25.37
71096;DHT22;58753;49.440;11.126;2023-04-03T12:31:15;18.12;23.62
71096;DHT22;58753;49.440;11.126;2023-04-03T12:34:04;17.90;24.31
71096;DHT22;58753;49.440;11.126;2023-04-03T12:37:34;18.13;24.68
71096;DHT22;58753;49.440;11.126;2023-04-03T12:39:42;18.81;24.52
71096;DHT22;58753;49.440;11.126;2023-04-03T12:45:20;15.88;20.98
71096;DHT22;58753;49.440;11.126;2023-04-03T12:47:48;16.84;23.96
71096;DHT22;58753;49.440;11.126;2023-04-03T12:50:23;16.34;23.02
71096;DHT22;58753;49.440;11.126;2023-04-03T12:53:16;15.07;23.97
71096;DHT22;58753;49.440;11.126;2023-04-03T12:55:43;13.98;23.82
71096;DHT22;58753;49.440;11.126;2023-04-03T12:58:22;13.66;27.62
71096;DHT22;58753;49.440;11.126;2023-04-03T13:01:15;14.53;28.39
71096;DHT22;58753;49.440;11.126;2023-04-03T13:03:45;15.41;27.07
71096;DHT22;58753;49.440;11.126;2023-04-03T13:06:18;15.87;27.43
71096;DHT22;58753;49.440;11.126;2023-04-03T13:08:56;14.90;25.12
71096;DHT22;58753;49.440;11.126;2023-04-03T13:11:27;13.51;25.53
71096;DHT22;58753;49.440;11.126;2023-04-03T13:14:00;12.40;25.72
71096;DHT22;58753;49.440;11.126;2023-04-03T13:16:27;12.58;29.05
71096;DHT22;58753;49.440;11.126;2023-04-03T13:18:53;13.89;30.52
71096;DHT22;58753;49.440;11.126;2023-04-03T13:21:30;14.97;28.99
71096;DHT22;58753;49.440;11.126;2023-04-03T13:23:59;15.41;27.79
71096;DHT22;58753;49.440;11.126;2023-04-03T13:26:29;16.22;26.94
71096;DHT22;58753;49.440;11.126;2023-04-03T13:29:02;14.96;24.29
71096;DHT22;58753;49.440;11.126;2023-04-03T13:31:34;12.59;25.46
71096;DHT22;58753;49.440;11.126;2023-04-03T13:34:09;11.69;27.12
71096;DHT22;58753;49.440;11.126;2023-04-03T13:37:02;10.96;28.67
71096;DHT22;58753;49.440;11.126;2023-04-03T13:39:37;13.80;32.55
71096;DHT22;58753;49.440;11.126;2023-04-03T13:42:23;15.30;31.33
71096;DHT22;58753;49.440;11.126;2023-04-03T13:44:48;16.25;28.50
71096;DHT22;58753;49.440;11.126;2023-04-03T13:47:18;14.82;26.94
71096;DHT22;58753;49.440;11.126;2023-04-03T13:49:59;13.47;26.32
71096;DHT22;58753;49.440;11.126;2023-04-03T13:52:31;12.55;27.23
71096;DHT22;58753;49.440;11.126;2023-04-03T13:55:25;11.57;27.84
71096;DHT22;58753;49.440;11.126;2023-04-03T13:58:00;12.65;28.62
71096;DHT22;58753;49.440;11.126;2023-04-03T14:00:59;14.09;31.99
71096;DHT22;58753;49.440;11.126;2023-04-03T14:03:33;16.04;30.55
71096;DHT22;58753;49.440;11.126;2023-04-03T14:06:05;16.34;28.09
71096;DHT22;58753;49.440;11.126;2023-04-03T14:08:31;16.80;27.47
71096;DHT22;58753;49.440;11.126;2023-04-03T14:10:57;17.51;27.04
71096;DHT22;58753;49.440;11.126;2023-04-03T14:13:22;17.52;24.38
71096;DHT22;58753;49.440;11.126;2023-04-03T14:15:48;15.04;23.21
71096;DHT22;58753;49.440;11.126;2023-04-03T14:18:18;14.43;26.31
71096;DHT22;58753;49.440;11.126;2023-04-03T14:20:44;15.07;26.58
71096;DHT22;58753;49.440;11.126;2023-04-03T14:23:10;15.22;27.55
71096;DHT22;58753;49.440;11.126;2023-04-03T14:25:37;15.62;26.34
71096;DHT22;58753;49.440;11.126;2023-04-03T14:28:14;15.51;27.23
71096;DHT22;58753;49.440;11.126;2023-04-03T14:30:40;16.50;26.98
71096;DHT22;58753;49.440;11.126;2023-04-03T14:33:05;15.91;24.97
71096;DHT22;58753;49.440;11.126;2023-04-03T14:35:31;15.84;26.61
71096;DHT22;58753;49.440;11.126;2023-04-03T14:37:56;16.66;26.78
71096;DHT22;58753;49.440;11.126;2023-04-03T14:40:25;16.84;24.81
71096;DHT22;58753;49.440;11.126;2023-04-03T14:42:51;16.34;26.28
71096;DHT22;58753;49.440;11.126;2023-04-03T14:45:17;16.46;24.95
71096;DHT22;58753;49.440;11.126;2023-04-03T14:48:02;14.11;24.25
71096;DHT22;58753;49.440;11.126;2023-04-03T14:50:28;13.19;25.97
71096;DHT22;58753;49.440;11.126;2023-04-03T14:52:56;12.38;26.57
71096;DHT22;58753;49.440;11.126;2023-04-03T14:55:24;12.51;29.78
71096;DHT22;58753;49.440;11.126;2023-04-03T14:57:50;14.05;29.42
71096;DHT22;58753;49.440;11.126;2023-04-03T15:00:18;13.47;27.84
71096;DHT22;58753;49.440;11.126;2023-04-03T15:02:44;12.18;27.93
71096;DHT22;58753;49.440;11.126;2023-04-03T15:05:10;11.42;28.55
71096;DHT22;58753;49.440;11.126;2023-04-03T15:07:52;10.55;29.38
71096;DHT22;58753;49.440;11.126;2023-04-03T15:10:21;10.16;30.69
71096;DHT22;58753;49.440;11.126;2023-04-03T15:12:48;9.73;31.30
71096;DHT22;58753;49.440;11.126;2023-04-03T15:15:15;9.46;32.06
71096;DHT22;58753;49.440;11.126;2023-04-03T15:17:42;9.39;33.25
71096;DHT22;58753;49.440;11.126;2023-04-03T15:20:14;9.21;33.36
71096;DHT22;58753;49.440;11.126;2023-04-03T15:22:40;9.63;34.93
71096;DHT22;58753;49.440;11.126;2023-04-03T15:25:06;9.94;34.52
71096;DHT22;58753;49.440;11.126;2023-04-03T15:27:31;10.36;34.42
71096;DHT22;58753;49.440;11.126;2023-04-03T15:29:57;10.51;34.55
71096;DHT22;58753;49.440;11.126;2023-04-03T15:32:22;10.68;34.68
71096;DHT22;58753;49.440;11.126;2023-04-03T15:34:47;10.18;33.43
71096;DHT22;58753;49.440;11.126;2023-04-03T15:37:13;9.79;33.78
71096;DHT22;58753;49.440;11.126;2023-04-03T15:39:38;9.62;33.99
71096;DHT22;58753;49.440;11.126;2023-04-03T15:42:04;9.42;34.05
71096;DHT22;58753;49.440;11.126;2023-04-03T15:44:32;9.01;34.43
71096;DHT22;58753;49.440;11.126;2023-04-03T15:46:58;8.76;34.89
71096;DHT22;58753;49.440;11.126;2023-04-03T15:49:24;8.97;35.56
71096;DHT22;58753;49.440;11.126;2023-04-03T15:51:49;8.87;35.67
71096;DHT22;58753;49.440;11.126;2023-04-03T15:54:15;8.77;35.83
71096;DHT22;58753;49.440;11.126;2023-04-03T15:56:41;8.89;36.29
71096;DHT22;58753;49.440;11.126;2023-04-03T15:59:06;9.29;36.65
71096;DHT22;58753;49.440;11.126;2023-04-03T16:01:32;9.36;36.20
71096;DHT22;58753;49.440;11.126;2023-04-03T16:03:58;9.27;36.56
71096;DHT22;58753;49.440;11.126;2023-04-03T16:06:24;9.29;36.26
71096;DHT22;58753;49.440;11.126;2023-04-03T16:08:50;9.45;35.92
71096;DHT22;58753;49.440;11.126;2023-04-03T16:11:16;9.03;35.52
71096;DHT22;58753;49.440;11.126;2023-04-03T16:13:41;8.67;35.42
71096;DHT22;58753;49.440;11.126;2023-04-03T16:16:07;8.74;36.46
71096;DHT22;58753;49.440;11.126;2023-04-03T16:18:34;8.71;36.56
71096;DHT22;58753;49.440;11.126;2023-04-03T16:20:59;8.76;36.93
71096;DHT22;58753;49.440;11.126;2023-04-03T16:23:25;8.81;37.08
71096;DHT22;58753;49.440;11.126;2023-04-03T16:25:50;8.85;37.23
71096;DHT22;58753;49.440;11.126;2023-04-03T16:28:17;8.85;37.50
71096;DHT22;58753;49.440;11.126;2023-04-03T16:30:44;8.89;37.56
71096;DHT22;58753;49.440;11.126;2023-04-03T16:33:10;8.96;37.69
71096;DHT22;58753;49.440;11.126;2023-04-03T16:35:36;8.97;37.72
71096;DHT22;58753;49.440;11.126;2023-04-03T16:38:02;9.05;37.39
71096;DHT22;58753;49.440;11.126;2023-04-03T16:40:27;9.93;36.64
71096;DHT22;58753;49.440;11.126;2023-04-03T16:42:52;10.03;35.50
71096;DHT22;58753;49.440;11.126;2023-04-03T16:45:18;9.58;35.49
71096;DHT22;58753;49.440;11.126;2023-04-03T16:47:43;9.46;36.43
71096;DHT22;58753;49.440;11.126;2023-04-03T16:50:09;10.34;37.14
71096;DHT22;58753;49.440;11.126;2023-04-03T16:52:54;11.14;35.68
71096;DHT22;58753;49.440;11.126;2023-04-03T16:55:19;11.63;35.24
71096;DHT22;58753;49.440;11.126;2023-04-03T16:57:46;11.83;34.16
71096;DHT22;58753;49.440;11.126;2023-04-03T17:00:12;11.87;33.77
71096;DHT22;58753;49.440;11.126;2023-04-03T17:02:37;11.53;32.24
71096;DHT22;58753;49.440;11.126;2023-04-03T17:05:03;11.18;32.10
71096;DHT22;58753;49.440;11.126;2023-04-03T17:07:28;9.99;31.58
71096;DHT22;58753;49.440;11.126;2023-04-03T17:09:54;8.80;32.36
71096;DHT22;58753;49.440;11.126;2023-04-03T17:12:19;8.03;33.54
71096;DHT22;58753;49.440;11.126;2023-04-03T17:14:45;7.41;34.50